11 août 2022

Temps Code Temps Temp. Vue Base cloud Vent METAR/SPECI
19:20
V
30 °C 10 km+ - 040° 040° 11 kt METAR EDSB 111720Z 04011KT CAVOK 30/05 Q1016
18:50
V
31 °C 10 km+ - 040° 040° 16 kt METAR EDSB 111650Z 04016KT 010V070 CAVOK 31/05 Q1016
18:20
V
31 °C 10 km+ - 050° 050° 13 kt METAR EDSB 111620Z 05013KT 010V100 CAVOK 31/06 Q1017
17:50
V
31 °C 10 km+ - 050° 050° 14 kt METAR EDSB 111550Z 05014KT 020V080 CAVOK 31/06 Q1017
17:20
V
31 °C 10 km+ - 040° 040° 13 kt METAR EDSB 111520Z 04013KT 010V070 CAVOK 31/06 Q1017
16:50
V
31 °C 10 km+ - 060° 060° 14 kt METAR EDSB 111450Z 06014KT 030V100 CAVOK 31/07 Q1017
16:20
V
31 °C 10 km+ - 060° 060° 12 kt METAR EDSB 111420Z 06012KT CAVOK 31/07 Q1017
15:50
V
31 °C 10 km+ - 040° 040° 15 kt METAR EDSB 111350Z 04015KT 350V070 CAVOK 31/07 Q1018
14:50
V
31 °C 10 km+ - 030° 030° 13 kt METAR EDSB 111250Z 03013KT 340V060 CAVOK 31/07 Q1018
14:20
V
31 °C 10 km+ - 030° 030° 13 kt METAR EDSB 111220Z 03013KT 340V060 CAVOK 31/08 Q1018
13:50
V
29 °C 10 km+ - 050° 050° 13 kt METAR EDSB 111150Z 05013KT CAVOK 29/07 Q1019
13:20
V
30 °C 10 km+ - 040° 040° 17 kt METAR EDSB 111120Z 04017KT CAVOK 30/08 Q1019
12:50
V
29 °C 10 km+ - 060° 060° 14 - 24 kt METAR EDSB 111050Z 06014G24KT 030V090 CAVOK 29/07 Q1020
12:20
V
29 °C 10 km+ - 030° 030° 17 kt METAR EDSB 111020Z 03017KT 360V090 CAVOK 29/07 Q1019
11:50
V
29 °C 10 km+ - 080° 080° 13 kt METAR EDSB 110950Z 08013KT 040V120 CAVOK 29/08 Q1020
11:20
V
29 °C 10 km+ - 090° 090° 15 kt METAR EDSB 110920Z 09015KT CAVOK 29/07 Q1020
10:50
V
26 °C 10 km+ - 350° 350° 9 kt METAR EDSB 110850Z 35009KT 310V020 CAVOK 26/10 Q1020
10:20
V
25 °C 10 km+ - 360° 360° 9 kt METAR EDSB 110820Z 36009KT CAVOK 25/10 Q1020
09:50
V
24 °C 10 km+ - 020° 020° 10 kt METAR EDSB 110750Z 02010KT 350V050 CAVOK 24/09 Q1020
09:20
V
22 °C 10 km+ - 020° 020° 10 kt METAR EDSB 110720Z 02010KT CAVOK 22/10 Q1020
08:50
V
21 °C 10 km+ - 020° 020° 9 kt METAR EDSB 110650Z 02009KT CAVOK 21/10 Q1020
08:20
V
19 °C 10 km+ - 020° 020° 7 kt METAR EDSB 110620Z 02007KT CAVOK 19/09 Q1020
07:50
V
19 °C 10 km+ - 020° 020° 6 kt METAR EDSB 110550Z 02006KT CAVOK 19/09 Q1020
07:20
V
17 °C 10 km+ - 020° 020° 5 kt METAR EDSB 110520Z 02005KT 350V050 CAVOK 17/09 Q1020
06:50
V
15 °C 10 km+ - 010° 010° 3 kt METAR EDSB 110450Z 01003KT CAVOK 15/10 Q1020
06:20
V
15 °C 10 km+ - 020° 020° 4 kt METAR EDSB 110420Z 02004KT CAVOK 15/09 Q1020
05:50
V
15 °C 10 km+ - 360° 360° 5 kt METAR EDSB 110350Z 36005KT CAVOK 15/09 Q1020
05:20
V
15 °C 10 km+ - 330° 330° 2 kt METAR EDSB 110320Z 33002KT CAVOK 15/10 Q1020
04:50
V
15 °C 10 km+ - Var Var 2 kt METAR EDSB 110250Z VRB02KT CAVOK 15/10 Q1020
04:20
V
15 °C 10 km+ - 020° 020° 3 kt METAR EDSB 110220Z AUTO 02003KT 310V060 9999 // NCD 15/09 Q1020
03:50
V
16 °C 10 km+ - Var Var 2 kt METAR EDSB 110150Z AUTO VRB02KT 9999 // NCD 16/08 Q1020
03:20
V
17 °C 10 km+ - 020° 020° 4 kt METAR EDSB 110120Z AUTO 02004KT 9999 // NCD 17/08 Q1020
02:50
V
17 °C 10 km+ - 020° 020° 7 kt METAR EDSB 110050Z AUTO 02007KT 9999 // NCD 17/08 Q1020
02:20
V
17 °C 10 km+ - 020° 020° 5 kt METAR EDSB 110020Z AUTO 02005KT 9999 // NCD 17/09 Q1020
01:50
V
17 °C 10 km+ - 020° 020° 6 kt METAR EDSB 102350Z AUTO 02006KT 9999 // NCD 17/10 Q1020
01:20
V
18 °C 10 km+ - 020° 020° 5 kt METAR EDSB 102320Z AUTO 02005KT 9999 // FEW003/// 18/08 Q1020
00:50
V
18 °C 10 km+ - 020° 020° 6 kt METAR EDSB 102250Z AUTO 02006KT 9999 // NCD 18/08 Q1020
00:20
V
19 °C 10 km+ - 020° 020° 4 kt METAR EDSB 102220Z AUTO 02004KT 9999 // NCD 19/07 Q1020

10 août 2022

Temps Code Temps Temp. Vue Base cloud Vent METAR/SPECI
23:50
V
20 °C 10 km+ - 020° 020° 5 kt METAR EDSB 102150Z AUTO 02005KT 9999 // NCD 20/08 Q1020
23:20
V
21 °C 10 km+ - 020° 020° 5 kt METAR EDSB 102120Z 02005KT CAVOK 21/08 Q1020
22:50
V
22 °C 10 km+ - 020° 020° 5 kt METAR EDSB 102050Z 02005KT CAVOK 22/07 Q1020
22:20
V
22 °C 10 km+ - 040° 040° 5 kt METAR EDSB 102020Z 04005KT CAVOK 22/07 Q1020
21:50
V
23 °C 10 km+ - 020° 020° 6 kt METAR EDSB 101950Z 02006KT CAVOK 23/07 Q1020
21:20
V
24 °C 10 km+ - 030° 030° 6 kt METAR EDSB 101920Z 03006KT CAVOK 24/06 Q1020
20:50
V
26 °C 10 km+ - 030° 030° 6 kt METAR EDSB 101850Z 03006KT CAVOK 26/07 Q1020
20:20
V
29 °C 10 km+ - 050° 050° 9 kt METAR EDSB 101820Z 05009KT CAVOK 29/06 Q1019
19:50
V
30 °C 10 km+ - 050° 050° 10 kt METAR EDSB 101750Z 05010KT CAVOK 30/06 Q1019
19:20
V
30 °C 10 km+ - 070° 070° 11 kt METAR EDSB 101720Z 07011KT CAVOK 30/06 Q1019
18:50
V
31 °C 10 km+ - 060° 060° 13 kt METAR EDSB 101650Z 06013KT 030V100 CAVOK 31/06 Q1020
18:20
V
31 °C 10 km+ - 040° 040° 15 kt METAR EDSB 101620Z 04015KT CAVOK 31/07 Q1020
17:50
V
31 °C 10 km+ - 030° 030° 14 kt METAR EDSB 101550Z 03014KT CAVOK 31/06 Q1020
17:20
V
30 °C 10 km+ - 040° 040° 14 kt METAR EDSB 101520Z 04014KT CAVOK 30/06 Q1020
16:50
V
31 °C 10 km+ - 030° 030° 16 kt METAR EDSB 101450Z 03016KT 350V050 CAVOK 31/07 Q1020
16:20
V
31 °C 10 km+ - 030° 030° 13 - 24 kt METAR EDSB 101420Z 03013G24KT 350V090 CAVOK 31/07 Q1020
15:50
V
31 °C 10 km+ - 050° 050° 12 kt METAR EDSB 101350Z 05012KT 010V080 CAVOK 31/07 Q1021
15:20
V
31 °C 10 km+ - 050° 050° 14 kt METAR EDSB 101320Z 05014KT CAVOK 31/06 Q1021
14:50
V
31 °C 10 km+ - 040° 040° 15 kt METAR EDSB 101250Z 04015KT 360V080 CAVOK 31/06 Q1021
14:20
V
30 °C 10 km+ - 060° 060° 14 kt METAR EDSB 101220Z 06014KT 010V100 CAVOK 30/06 Q1022
13:50
V
30 °C 10 km+ - 030° 030° 15 - 26 kt METAR EDSB 101150Z 03015G26KT 360V080 CAVOK 30/07 Q1022
13:20
V
30 °C 10 km+ - 040° 040° 17 - 27 kt METAR EDSB 101120Z 04017G27KT 020V080 CAVOK 30/07 Q1022
12:50
V
29 °C 10 km+ - 050° 050° 20 kt METAR EDSB 101050Z 05020KT CAVOK 29/06 Q1022
12:20
V
29 °C 10 km+ - 060° 060° 17 kt METAR EDSB 101020Z 06017KT 020V100 CAVOK 29/06 Q1022
11:50
V
29 °C 10 km+ - 050° 050° 15 - 26 kt METAR EDSB 100950Z 05015G26KT 020V080 CAVOK 29/06 Q1022
11:20
V
28 °C 10 km+ - 050° 050° 13 kt METAR EDSB 100920Z 05013KT 010V080 CAVOK 28/08 Q1022
10:50
V
26 °C 10 km+ - 010° 010° 12 kt METAR EDSB 100850Z 01012KT 340V040 CAVOK 26/10 Q1022
10:20
V
25 °C 10 km+ - 360° 360° 11 kt METAR EDSB 100820Z 36011KT 330V030 CAVOK 25/11 Q1023
09:50
V
24 °C 10 km+ - 010° 010° 9 kt METAR EDSB 100750Z 01009KT 330V030 CAVOK 24/11 Q1023
09:20
V
22 °C 10 km+ - 020° 020° 10 kt METAR EDSB 100720Z 02010KT CAVOK 22/10 Q1023
08:50
V
21 °C 10 km+ - 010° 010° 10 kt METAR EDSB 100650Z 01010KT CAVOK 21/10 Q1023
08:20
V
21 °C 10 km+ - 020° 020° 11 kt METAR EDSB 100620Z 02011KT CAVOK 21/10 Q1023
07:50
V
20 °C 10 km+ - 020° 020° 9 kt METAR EDSB 100550Z 02009KT CAVOK 20/10 Q1023
07:20
V
19 °C 10 km+ - 020° 020° 8 kt METAR EDSB 100520Z 02008KT CAVOK 19/10 Q1023
06:50
V
18 °C 10 km+ - 010° 010° 7 kt METAR EDSB 100450Z 01007KT CAVOK 18/10 Q1023
06:20
V
17 °C 10 km+ - 020° 020° 8 kt METAR EDSB 100420Z 02008KT CAVOK 17/10 Q1022
05:50
V
17 °C 10 km+ - 020° 020° 5 kt METAR EDSB 100350Z 02005KT CAVOK 17/10 Q1022
05:20
V
17 °C 10 km+ - 360° 360° 6 kt METAR EDSB 100320Z 36006KT CAVOK 17/10 Q1022
04:50
V
17 °C 10 km+ - 020° 020° 6 kt METAR EDSB 100250Z AUTO 02006KT 9999 // NCD 17/09 Q1022
04:20
V
17 °C 10 km+ - 020° 020° 7 kt METAR EDSB 100220Z AUTO 02007KT 9999 // NCD 17/09 Q1022
03:50
V
18 °C 10 km+ - 020° 020° 8 kt METAR EDSB 100150Z AUTO 02008KT 9999 // NCD 18/09 Q1022
03:20
V
18 °C 10 km+ - 010° 010° 7 kt METAR EDSB 100120Z AUTO 01007KT 9999 // NCD 18/09 Q1022
02:50
V
19 °C 10 km+ - 020° 020° 7 kt METAR EDSB 100050Z AUTO 02007KT 9999 // NCD 19/09 Q1022
02:20
V
19 °C 10 km+ - 020° 020° 6 kt METAR EDSB 100020Z AUTO 02006KT 9999 // NCD 19/09 Q1022
01:50
V
18 °C 10 km+ - 010° 010° 5 kt METAR EDSB 092350Z AUTO 01005KT 9999 // NCD 18/09 Q1022
01:20
V
20 °C 10 km+ - 030° 030° 4 kt METAR EDSB 092320Z AUTO 03004KT 9999 // NCD 20/09 Q1022
00:50
V
20 °C 10 km+ - 030° 030° 5 kt METAR EDSB 092250Z AUTO 03005KT 9999 // NCD 20/09 Q1022
00:20
V
20 °C 10 km+ - 020° 020° 6 kt METAR EDSB 092220Z AUTO 02006KT 9999 // NCD 20/09 Q1022

9 août 2022

Temps Code Temps Temp. Vue Base cloud Vent METAR/SPECI
23:50
V
20 °C 10 km+ - 020° 020° 6 kt METAR EDSB 092150Z AUTO 02006KT 9999 // NCD 20/08 Q1022
23:20
V
21 °C 10 km+ - 020° 020° 5 kt METAR EDSB 092120Z AUTO 02005KT 9999 // NCD 21/08 Q1022
22:50
V
21 °C 10 km+ - 030° 030° 5 kt METAR EDSB 092050Z 03005KT CAVOK 21/08 Q1022
22:20
V
23 °C 10 km+ - 040° 040° 5 kt METAR EDSB 092020Z 04005KT CAVOK 23/07 Q1022
21:50
V
24 °C 10 km+ - 030° 030° 7 kt METAR EDSB 091950Z 03007KT CAVOK 24/07 Q1022
21:20
V
25 °C 10 km+ - 030° 030° 7 kt METAR EDSB 091920Z 03007KT CAVOK 25/07 Q1022
20:50
V
27 °C 10 km+ - 020° 020° 9 kt METAR EDSB 091850Z 02009KT CAVOK 27/07 Q1022
20:20
V
28 °C 10 km+ - 020° 020° 9 kt METAR EDSB 091820Z 02009KT CAVOK 28/08 Q1021
19:50
V
30 °C 10 km+ - 030° 030° 10 kt METAR EDSB 091750Z 03010KT CAVOK 30/07 Q1021
19:20
V
30 °C 10 km+ - 030° 030° 12 kt METAR EDSB 091720Z 03012KT 360V060 CAVOK 30/07 Q1021
18:50
V
31 °C 10 km+ - 020° 020° 13 kt METAR EDSB 091650Z 02013KT CAVOK 31/07 Q1021
18:20
V
31 °C 10 km+ - 020° 020° 12 kt METAR EDSB 091620Z 02012KT 350V050 CAVOK 31/08 Q1021
17:50
V
31 °C 10 km+ - 030° 030° 13 kt METAR EDSB 091550Z 03013KT 350V050 CAVOK 31/08 Q1021
17:20
V
31 °C 10 km+ - 030° 030° 14 kt METAR EDSB 091520Z 03014KT 360V060 CAVOK 31/08 Q1021
16:50
V
31 °C 10 km+ - 020° 020° 13 kt METAR EDSB 091450Z 02013KT 340V040 CAVOK 31/09 Q1021
Données plus anciennes

Nous et des tiers suivons ton comportement sur Internet sur notre site Web à l'aide de cookies. Si tu continues, nous supposons que tu acceptes notre politique en matière de cookies. Apprendre plus